Time;durP1;ratioP1;P1;durP2;ratioP2;P2;SDS_P1;SDS_P2;PMS_P1;PMS_P2;Temp;Humidity;BMP_temperature;BMP_pressure;BME280_temperature;BME280_humidity;BME280_pressure;Samples;Min_cycle;Max_cycle;Signal;HPM_P1;HPM_P2
2022/06/11 00:01:19;;;;;;;5.13;1.70;;;;;;;;;;5060929;28;20056;-69
2022/06/11 00:03:46;;;;;;;10.10;1.85;;;;;;;;;;5050359;28;20076;-67
2022/06/11 00:06:13;;;;;;;4.78;1.92;;;;;;;;;;5044727;28;20049;-70
2022/06/11 00:08:39;;;;;;;3.80;1.80;;;;;;;;;;5051715;28;20060;-65
2022/06/11 00:11:06;;;;;;;5.10;1.73;;;;;;;;;;5045498;28;20049;-69
2022/06/11 00:13:36;;;;;;;4.95;2.10;;;;;;;;;;5067053;28;20060;-69
2022/06/11 00:16:03;;;;;;;4.38;1.65;;;;;;;;;;5044119;28;20049;-65
2022/06/11 00:18:31;;;;;;;3.95;1.42;;;;;;;;;;5048994;28;20048;-68
2022/06/11 00:20:58;;;;;;;6.95;1.75;;;;;;;;;;5041932;28;20049;-69
2022/06/11 00:23:26;;;;;;;3.67;1.60;;;;;;;;;;5048820;28;20057;-68
2022/06/11 00:25:52;;;;;;;5.68;1.90;;;;;;;;;;5043590;28;20053;-68
2022/06/11 00:28:19;;;;;;;6.00;1.70;;;;;;;;;;5050550;28;20049;-66
2022/06/11 00:30:46;;;;;;;5.30;1.65;;;;;;;;;;5063462;28;20052;-64
2022/06/11 00:33:13;;;;;;;8.60;1.90;;;;;;;;;;5064903;28;20055;-69
2022/06/11 00:35:42;;;;;;;3.83;1.70;;;;;;;;;;5049096;28;20049;-69
2022/06/11 00:38:09;;;;;;;5.40;1.83;;;;;;;;;;5042909;28;20141;-65
2022/06/11 00:40:37;;;;;;;4.65;1.55;;;;;;;;;;5063883;28;20068;-66
2022/06/11 00:43:06;;;;;;;7.88;1.90;;;;;;;;;;5042700;28;20076;-68
2022/06/11 00:45:35;;;;;;;4.93;1.52;;;;;;;;;;5065248;28;20139;-68
2022/06/11 00:48:02;;;;;;;;;;;;;;;;;;5044145;28;20049;-69
2022/06/11 00:50:30;;;;;;;3.50;1.50;;;;;;;;;;5048480;28;19983;-68
2022/06/11 00:52:59;;;;;;;6.22;1.77;;;;;;;;;;5043066;28;20045;-68
2022/06/11 00:55:27;;;;;;;3.75;1.80;;;;;;;;;;5048431;28;20072;-69
2022/06/11 00:57:56;;;;;;;5.05;1.77;;;;;;;;;;5043126;28;20059;-68
2022/06/11 01:00:25;;;;;;;3.58;1.80;;;;;;;;;;5048192;28;20118;-66
2022/06/11 01:02:52;;;;;;;4.82;2.17;;;;;;;;;;5042722;28;20130;-68
2022/06/11 01:05:21;;;;;;;3.07;1.57;;;;;;;;;;5059117;28;20053;-68
2022/06/11 01:07:58;;;;;;;3.83;1.73;;;;;;;;;;5072168;28;20057;-68
2022/06/11 01:10:38;;;;;;;9.98;2.00;;;;;;;;;;5049271;28;20075;-68
2022/06/11 01:13:08;;;;;;;7.20;2.33;;;;;;;;;;5059827;28;20177;-70
2022/06/11 01:15:37;;;;;;;5.75;2.38;;;;;;;;;;5050892;28;20054;-67
2022/06/11 01:18:08;;;;;;;6.30;2.03;;;;;;;;;;5054696;28;20049;-68
2022/06/11 01:20:41;;;;;;;6.28;2.08;;;;;;;;;;5042020;28;20049;-68
2022/06/11 01:23:34;;;;;;;8.32;2.70;;;;;;;;;;5048240;28;20081;-69
2022/06/11 01:26:08;;;;;;;4.03;1.75;;;;;;;;;;5042270;28;20135;-69
2022/06/11 01:28:41;;;;;;;3.13;1.48;;;;;;;;;;5048997;28;20049;-69
2022/06/11 01:31:14;;;;;;;5.25;1.55;;;;;;;;;;5043275;28;20060;-69
2022/06/11 01:33:45;;;;;;;3.63;1.63;;;;;;;;;;5049510;28;20049;-68
2022/06/11 01:36:15;;;;;;;2.95;1.30;;;;;;;;;;5040662;28;20049;-70
2022/06/11 01:38:44;;;;;;;5.65;2.20;;;;;;;;;;5049932;28;20168;-69
2022/06/11 01:41:23;;;;;;;3.58;1.88;;;;;;;;;;5044420;28;20059;-68
2022/06/11 01:43:50;;;;;;;6.25;2.15;;;;;;;;;;5048762;28;20049;-69
2022/06/11 01:46:21;;;;;;;5.95;2.30;;;;;;;;;;5048303;28;20072;-69
2022/06/11 01:48:52;;;;;;;4.70;2.15;;;;;;;;;;5041702;28;20081;-68
2022/06/11 01:51:28;;;;;;;5.07;2.15;;;;;;;;;;5047738;28;20053;-70
2022/06/11 01:54:10;;;;;;;5.25;2.30;;;;;;;;;;5041534;28;20054;-70
2022/06/11 01:56:51;;;;;;;6.32;1.75;;;;;;;;;;5048144;28;20103;-67
2022/06/11 01:59:28;;;;;;;3.67;1.77;;;;;;;;;;5029448;28;20082;-69
2022/06/11 02:02:03;;;;;;;6.65;2.03;;;;;;;;;;5047417;28;20059;-66
2022/06/11 02:04:35;;;;;;;5.95;1.90;;;;;;;;;;5041716;28;20056;-70
2022/06/11 02:07:06;;;;;;;4.43;1.75;;;;;;;;;;5047548;28;20052;-70
2022/06/11 02:09:36;;;;;;;3.45;1.40;;;;;;;;;;5041414;28;20180;-70
2022/06/11 02:12:07;;;;;;;5.07;1.73;;;;;;;;;;5047495;28;20056;-67
2022/06/11 02:14:37;;;;;;;2.78;1.52;;;;;;;;;;5045799;28;20059;-68
2022/06/11 02:17:07;;;;;;;3.55;1.77;;;;;;;;;;5044958;28;20112;-70
2022/06/11 02:19:36;;;;;;;4.28;2.10;;;;;;;;;;5046632;28;20057;-70
2022/06/11 02:22:03;;;;;;;;;;;;;;;;;;5042776;28;20068;-69
2022/06/11 02:24:31;;;;;;;4.00;1.75;;;;;;;;;;5046852;28;19932;-69
2022/06/11 02:27:00;;;;;;;5.50;2.08;;;;;;;;;;5020326;28;20108;-66
2022/06/11 02:29:27;;;;;;;5.32;1.83;;;;;;;;;;5026943;28;20050;-66
2022/06/11 02:31:56;;;;;;;5.97;1.65;;;;;;;;;;5021523;28;20057;-67
2022/06/11 02:34:25;;;;;;;4.07;1.67;;;;;;;;;;5043454;28;20076;-68
2022/06/11 02:36:55;;;;;;;4.50;2.35;;;;;;;;;;5022295;28;20048;-68
2022/06/11 02:39:22;;;;;;;4.65;1.60;;;;;;;;;;5027593;28;20061;-69
2022/06/11 02:41:48;;;;;;;3.35;1.58;;;;;;;;;;5014544;28;20061;-65
2022/06/11 02:44:16;;;;;;;6.40;2.10;;;;;;;;;;5007404;28;20060;-64
2022/06/11 02:46:43;;;;;;;4.57;1.95;;;;;;;;;;5019305;28;20061;-70
2022/06/11 02:49:11;;;;;;;3.03;1.65;;;;;;;;;;5007575;28;20139;-68
2022/06/11 02:51:40;;;;;;;5.45;2.05;;;;;;;;;;5021536;28;20053;-68
2022/06/11 02:54:07;;;;;;;2.10;1.30;;;;;;;;;;5043109;28;20061;-68
2022/06/11 02:56:33;;;;;;;3.80;1.90;;;;;;;;;;5022540;28;20077;-67
2022/06/11 02:59:00;;;;;;;5.85;2.20;;;;;;;;;;5026182;28;20064;-68
2022/06/11 03:01:26;;;;;;;8.70;2.00;;;;;;;;;;5027063;28;20049;-69
2022/06/11 03:03:53;;;;;;;3.35;2.00;;;;;;;;;;5021783;28;20061;-69
2022/06/11 03:06:22;;;;;;;2.47;1.60;;;;;;;;;;5043813;28;20079;-69
2022/06/11 03:08:49;;;;;;;4.20;1.27;;;;;;;;;;5038311;28;20068;-69
2022/06/11 03:11:16;;;;;;;2.10;1.35;;;;;;;;;;5043445;28;20049;-67
2022/06/11 03:13:43;;;;;;;2.72;1.50;;;;;;;;;;5021480;28;20064;-70
2022/06/11 03:16:10;;;;;;;6.50;1.75;;;;;;;;;;5043818;28;20057;-67
2022/06/11 03:18:37;;;;;;;2.60;1.40;;;;;;;;;;5020628;28;20064;-67
2022/06/11 03:21:04;;;;;;;3.50;1.70;;;;;;;;;;5045615;28;20069;-68
2022/06/11 03:23:32;;;;;;;5.93;2.13;;;;;;;;;;5041036;28;20049;-69
2022/06/11 03:26:00;;;;;;;5.90;2.15;;;;;;;;;;5032697;28;20115;-68
2022/06/11 03:28:28;;;;;;;7.75;2.20;;;;;;;;;;5042936;28;20161;-68
2022/06/11 03:30:56;;;;;;;6.00;2.80;;;;;;;;;;5046865;28;20057;-68
2022/06/11 03:33:24;;;;;;;6.22;2.75;;;;;;;;;;5025667;28;20050;-67
2022/06/11 03:35:53;;;;;;;3.60;1.95;;;;;;;;;;5030881;28;20120;-69
2022/06/11 03:38:20;;;;;;;5.50;2.58;;;;;;;;;;5041476;28;20119;-69
2022/06/11 03:40:47;;;;;;;3.88;1.95;;;;;;;;;;5029557;28;20045;-69
2022/06/11 03:43:16;;;;;;;3.40;1.42;;;;;;;;;;5047013;28;20145;-70
2022/06/11 03:45:43;;;;;;;3.15;1.88;;;;;;;;;;5040983;28;20054;-68
2022/06/11 03:48:10;;;;;;;3.30;1.83;;;;;;;;;;5029662;28;20057;-68
2022/06/11 03:50:39;;;;;;;6.85;1.83;;;;;;;;;;5008281;28;20057;-68
2022/06/11 03:53:07;;;;;;;8.02;2.15;;;;;;;;;;5009569;28;20112;-68
2022/06/11 03:55:34;;;;;;;5.07;2.03;;;;;;;;;;5037409;28;20049;-67
2022/06/11 03:58:01;;;;;;;4.10;1.60;;;;;;;;;;5046212;28;20053;-68
2022/06/11 04:03:16;;;;;;;4.23;1.70;;;;;;;;;;5046470;28;20053;-67
2022/06/11 04:05:43;;;;;;;2.65;1.25;;;;;;;;;;5024100;28;20390;-70
2022/06/11 04:08:11;;;;;;;5.82;1.52;;;;;;;;;;5029138;28;20054;-69
2022/06/11 04:10:38;;;;;;;3.40;1.23;;;;;;;;;;5023387;28;20138;-67
2022/06/11 04:13:05;;;;;;;5.15;1.70;;;;;;;;;;5046026;28;20061;-66
2022/06/11 04:15:33;;;;;;;5.25;1.30;;;;;;;;;;5040922;28;20064;-67
2022/06/11 04:18:00;;;;;;;1.85;1.10;;;;;;;;;;5045560;28;20049;-69
2022/06/11 04:20:27;;;;;;;6.75;1.45;;;;;;;;;;5023723;28;20042;-65
2022/06/11 04:22:54;;;;;;;7.45;1.48;;;;;;;;;;5029883;28;20054;-69
2022/06/11 04:25:21;;;;;;;2.70;1.08;;;;;;;;;;5036956;28;20053;-67
2022/06/11 04:27:53;;;;;;;4.00;1.23;;;;;;;;;;5026507;28;20046;-67
2022/06/11 04:30:20;;;;;;;2.10;1.00;;;;;;;;;;5037123;28;20112;-66
2022/06/11 04:32:48;;;;;;;3.78;0.90;;;;;;;;;;5029470;28;20049;-67
2022/06/11 04:35:14;;;;;;;7.90;2.10;;;;;;;;;;5028801;28;20045;-70
2022/06/11 04:37:41;;;;;;;3.17;1.20;;;;;;;;;;5023688;28;20061;-65
2022/06/11 04:40:09;;;;;;;6.32;1.17;;;;;;;;;;5028611;28;20049;-67
2022/06/11 04:42:37;;;;;;;6.80;1.60;;;;;;;;;;5023442;28;20063;-67
2022/06/11 04:45:04;;;;;;;3.42;1.17;;;;;;;;;;5029422;28;20063;-69
2022/06/11 04:47:31;;;;;;;7.25;1.40;;;;;;;;;;5023642;28;20103;-66
2022/06/11 04:50:01;;;;;;;6.03;1.65;;;;;;;;;;5029319;28;20057;-70
2022/06/11 04:52:28;;;;;;;3.88;1.10;;;;;;;;;;5040009;28;20140;-68
2022/06/11 04:54:55;;;;;;;7.10;1.42;;;;;;;;;;5045594;28;20054;-67
2022/06/11 04:57:22;;;;;;;5.63;1.25;;;;;;;;;;5040435;28;20049;-69
2022/06/11 04:59:49;;;;;;;5.68;1.70;;;;;;;;;;5047047;28;20053;-69
2022/06/11 05:02:15;;;;;;;12.38;1.55;;;;;;;;;;5024867;28;20103;-70
2022/06/11 05:04:42;;;;;;;7.15;1.55;;;;;;;;;;5032149;28;20049;-65
2022/06/11 05:07:10;;;;;;;4.65;1.30;;;;;;;;;;5021462;28;20057;-67
2022/06/11 05:09:37;;;;;;;17.10;1.83;;;;;;;;;;5028624;28;20042;-70
2022/06/11 05:12:04;;;;;;;10.27;1.30;;;;;;;;;;5025168;28;20061;-70
2022/06/11 05:14:31;;;;;;;7.03;1.67;;;;;;;;;;5039000;28;20111;-69
2022/06/11 05:16:59;;;;;;;7.93;1.42;;;;;;;;;;5028593;28;20060;-68
2022/06/11 05:19:26;;;;;;;2.30;0.93;;;;;;;;;;5022250;28;20056;-69
2022/06/11 05:21:54;;;;;;;9.18;1.45;;;;;;;;;;5027693;28;20312;-69
2022/06/11 05:24:22;;;;;;;10.63;1.52;;;;;;;;;;5014954;28;20103;-69
2022/06/11 05:26:57;;;;;;;5.75;1.38;;;;;;;;;;5027690;28;20059;-69
2022/06/11 05:29:26;;;;;;;10.85;1.38;;;;;;;;;;5022697;28;20060;-67
2022/06/11 05:31:53;;;;;;;5.47;1.27;;;;;;;;;;5026449;28;20076;-69
2022/06/11 05:34:20;;;;;;;11.20;1.38;;;;;;;;;;5038599;28;20053;-68
2022/06/11 05:36:47;;;;;;;12.70;1.50;;;;;;;;;;5034257;28;20129;-69
2022/06/11 05:39:14;;;;;;;10.90;1.58;;;;;;;;;;5024482;28;20082;-68
2022/06/11 05:41:42;;;;;;;15.93;1.92;;;;;;;;;;5029584;28;20073;-68
2022/06/11 05:44:08;;;;;;;12.50;1.80;;;;;;;;;;5027895;28;20053;-68
2022/06/11 05:46:36;;;;;;;8.20;1.58;;;;;;;;;;5029459;28;20060;-68
2022/06/11 05:49:05;;;;;;;11.65;1.75;;;;;;;;;;5053787;28;20064;-68
2022/06/11 05:51:34;;;;;;;11.80;1.50;;;;;;;;;;5065824;28;20090;-69
2022/06/11 05:54:02;;;;;;;13.63;1.88;;;;;;;;;;5061788;28;20059;-69
2022/06/11 05:56:29;;;;;;;6.63;1.52;;;;;;;;;;5067128;28;20053;-68
2022/06/11 05:58:58;;;;;;;10.23;1.42;;;;;;;;;;5047678;28;20053;-66
2022/06/11 06:01:27;;;;;;;5.82;1.45;;;;;;;;;;5047625;28;20053;-66
2022/06/11 06:03:53;;;;;;;16.48;2.08;;;;;;;;;;5050955;28;20056;-66
2022/06/11 06:06:20;;;;;;;6.53;1.52;;;;;;;;;;5067362;28;20052;-68
2022/06/11 06:08:47;;;;;;;8.77;1.75;;;;;;;;;;5060211;28;20076;-67
2022/06/11 06:11:13;;;;;;;9.00;1.75;;;;;;;;;;5066259;28;20083;-68
2022/06/11 06:13:49;;;;;;;21.02;2.60;;;;;;;;;;5066388;28;20066;-67
2022/06/11 06:16:18;;;;;;;5.30;1.40;;;;;;;;;;5043580;28;20052;-67
2022/06/11 06:18:45;;;;;;;11.88;1.70;;;;;;;;;;5028123;28;20053;-66
2022/06/11 06:21:12;;;;;;;11.75;2.20;;;;;;;;;;5021388;28;20072;-65
2022/06/11 06:23:38;;;;;;;17.52;2.10;;;;;;;;;;5027444;28;20064;-65
2022/06/11 06:26:05;;;;;;;7.82;1.50;;;;;;;;;;5022037;28;20053;-65
2022/06/11 06:28:32;;;;;;;9.25;1.63;;;;;;;;;;5027672;28;20042;-66
2022/06/11 06:31:00;;;;;;;13.55;2.17;;;;;;;;;;5021606;28;20051;-68
2022/06/11 06:33:30;;;;;;;7.95;1.60;;;;;;;;;;5024933;28;20065;-65
2022/06/11 06:35:57;;;;;;;19.35;2.40;;;;;;;;;;5023441;28;20049;-66
2022/06/11 06:38:24;;;;;;;10.43;2.05;;;;;;;;;;5029325;28;20053;-68
2022/06/11 06:40:50;;;;;;;13.43;2.22;;;;;;;;;;5022100;28;20059;-68
2022/06/11 06:43:17;;;;;;;15.32;2.20;;;;;;;;;;5026747;28;20056;-65
2022/06/11 06:45:44;;;;;;;13.23;1.83;;;;;;;;;;5021515;28;20053;-65
2022/06/11 06:48:11;;;;;;;10.18;1.80;;;;;;;;;;5026512;28;20053;-67
2022/06/11 06:50:39;;;;;;;14.68;2.28;;;;;;;;;;5027198;28;20057;-66
2022/06/11 06:53:08;;;;;;;6.82;1.77;;;;;;;;;;5022133;28;20225;-66
2022/06/11 06:55:34;;;;;;;21.85;1.90;;;;;;;;;;5030603;28;20149;-68
2022/06/11 06:58:01;;;;;;;11.13;2.17;;;;;;;;;;5025610;28;20172;-65
2022/06/11 07:00:28;;;;;;;13.63;1.98;;;;;;;;;;5030716;28;20050;-65
2022/06/11 07:02:55;;;;;;;14.35;2.20;;;;;;;;;;5024727;28;20081;-67
2022/06/11 07:05:23;;;;;;;10.38;2.28;;;;;;;;;;5030742;28;20061;-66
2022/06/11 07:07:51;;;;;;;24.25;6.28;;;;;;;;;;5024566;28;20049;-66
2022/06/11 07:10:18;;;;;;;7.80;1.95;;;;;;;;;;5035570;28;20053;-67
2022/06/11 07:12:47;;;;;;;10.52;1.58;;;;;;;;;;5035727;28;20062;-66
2022/06/11 07:15:13;;;;;;;;;;;;;;;;;;5034992;28;20076;-66
2022/06/11 07:17:42;;;;;;;21.23;2.88;;;;;;;;;;5046221;28;19932;-65
2022/06/11 07:20:12;;;;;;;8.02;1.60;;;;;;;;;;5045548;28;20057;-65
2022/06/11 07:22:41;;;;;;;19.85;2.40;;;;;;;;;;5047892;28;20075;-65
2022/06/11 07:25:10;;;;;;;13.85;1.80;;;;;;;;;;5040313;28;20049;-67
2022/06/11 07:27:38;;;;;;;19.27;2.30;;;;;;;;;;5048245;28;20057;-66
2022/06/11 07:30:08;;;;;;;13.60;1.87;;;;;;;;;;5041687;28;20057;-66
2022/06/11 07:32:35;;;;;;;16.73;2.15;;;;;;;;;;5049424;28;20057;-66
2022/06/11 07:35:02;;;;;;;15.60;2.15;;;;;;;;;;5054368;28;20056;-67
2022/06/11 07:37:29;;;;;;;26.40;2.33;;;;;;;;;;5049105;28;20140;-66
2022/06/11 07:39:55;;;;;;;13.60;2.33;;;;;;;;;;5049246;28;20056;-68
2022/06/11 07:42:24;;;;;;;14.60;1.77;;;;;;;;;;5040730;28;20056;-66
2022/06/11 07:44:50;;;;;;;11.48;2.03;;;;;;;;;;5049327;28;20063;-67
2022/06/11 07:47:53;;;;;;;11.98;1.85;;;;;;;;;;5033937;28;20064;-66
2022/06/11 07:50:04;;;;;;;24.20;4.28;;;;;;;;;;5049179;28;20080;-66
2022/06/11 07:52:31;;;;;;;9.30;2.60;;;;;;;;;;5041313;28;20080;-66
2022/06/11 07:54:58;;;;;;;9.07;1.92;;;;;;;;;;5049451;28;20059;-66
2022/06/11 07:57:27;;;;;;;8.55;1.83;;;;;;;;;;5047629;28;20057;-67
2022/06/11 07:59:53;;;;;;;12.82;1.95;;;;;;;;;;5049858;28;20053;-66
2022/06/11 08:02:20;;;;;;;13.80;1.98;;;;;;;;;;5044814;28;20069;-65
2022/06/11 08:04:47;;;;;;;16.95;2.20;;;;;;;;;;5059014;28;20076;-65
2022/06/11 08:07:13;;;;;;;18.38;2.88;;;;;;;;;;5044367;28;20049;-66
2022/06/11 08:09:40;;;;;;;6.90;1.80;;;;;;;;;;5061408;28;20057;-66
2022/06/11 08:12:07;;;;;;;15.50;2.13;;;;;;;;;;5064350;28;20097;-65
2022/06/11 08:14:35;;;;;;;12.27;2.33;;;;;;;;;;5058157;28;20083;-66
2022/06/11 08:17:01;;;;;;;9.27;1.52;;;;;;;;;;5049339;28;20057;-66
2022/06/11 08:19:29;;;;;;;11.35;2.13;;;;;;;;;;5046746;28;20048;-66
2022/06/11 08:21:56;;;;;;;16.73;2.50;;;;;;;;;;5049722;28;20057;-66
2022/06/11 08:24:22;;;;;;;11.13;1.98;;;;;;;;;;5049096;28;20060;-66
2022/06/11 08:26:49;;;;;;;12.05;2.30;;;;;;;;;;5061924;28;20110;-66
2022/06/11 08:29:16;;;;;;;13.27;1.60;;;;;;;;;;5048936;28;20057;-66
2022/06/11 08:31:44;;;;;;;15.27;2.40;;;;;;;;;;5045645;28;20052;-66
2022/06/11 08:34:11;;;;;;;11.45;1.90;;;;;;;;;;5048051;28;20068;-66
2022/06/11 08:36:37;;;;;;;10.65;1.70;;;;;;;;;;5044698;28;20065;-66
2022/06/11 08:39:05;;;;;;;15.23;2.15;;;;;;;;;;5049240;28;20060;-65
2022/06/11 08:41:35;;;;;;;18.67;1.95;;;;;;;;;;5044077;28;20164;-66
2022/06/11 08:44:04;;;;;;;8.38;1.63;;;;;;;;;;5047962;28;20063;-67
2022/06/11 08:46:33;;;;;;;12.32;1.85;;;;;;;;;;5049370;28;20047;-67
2022/06/11 08:49:03;;;;;;;12.15;2.35;;;;;;;;;;5045524;28;20053;-66
2022/06/11 08:51:34;;;;;;;8.52;1.92;;;;;;;;;;5048319;28;20045;-67
2022/06/11 08:54:04;;;;;;;9.40;1.73;;;;;;;;;;5051598;28;20059;-67
2022/06/11 08:56:33;;;;;;;13.88;1.90;;;;;;;;;;5068361;28;20056;-66
2022/06/11 08:59:06;;;;;;;15.43;1.75;;;;;;;;;;5059323;28;20056;-67
2022/06/11 09:01:40;;;;;;;11.15;2.05;;;;;;;;;;5067853;28;20106;-67
2022/06/11 09:04:18;;;;;;;8.00;1.55;;;;;;;;;;5062812;28;20066;-67
2022/06/11 09:06:54;;;;;;;13.40;2.03;;;;;;;;;;5028552;28;20154;-67
2022/06/11 09:09:25;;;;;;;10.60;1.90;;;;;;;;;;5044186;28;20053;-68
2022/06/11 09:12:04;;;;;;;14.85;2.15;;;;;;;;;;5062413;28;20040;-63
2022/06/11 09:14:56;;;;;;;16.45;2.05;;;;;;;;;;5067684;28;20064;-64
2022/06/11 09:17:43;;;;;;;16.20;2.13;;;;;;;;;;5061235;28;20106;-66
2022/06/11 09:20:14;;;;;;;8.27;1.73;;;;;;;;;;5067601;28;20143;-64
2022/06/11 09:22:54;;;;;;;12.65;1.98;;;;;;;;;;5043201;28;20061;-63
2022/06/11 09:25:26;;;;;;;14.88;2.25;;;;;;;;;;5048435;28;20057;-65
2022/06/11 09:27:59;;;;;;;16.40;2.25;;;;;;;;;;5042615;28;20052;-63
2022/06/11 09:30:28;;;;;;;13.05;2.40;;;;;;;;;;5048615;28;20053;-62
2022/06/11 09:32:59;;;;;;;13.02;2.35;;;;;;;;;;5042056;28;20061;-63
2022/06/11 09:35:32;;;;;;;14.90;2.75;;;;;;;;;;5047921;28;20060;-63
2022/06/11 09:38:05;;;;;;;18.73;5.47;;;;;;;;;;5042590;28;20051;-62
2022/06/11 09:40:35;;;;;;;13.77;2.80;;;;;;;;;;5048148;28;20049;-63
2022/06/11 09:43:13;;;;;;;11.93;2.13;;;;;;;;;;5042114;28;20140;-63
2022/06/11 09:45:45;;;;;;;16.77;2.20;;;;;;;;;;5047976;28;20059;-63
2022/06/11 09:48:18;;;;;;;12.30;2.05;;;;;;;;;;5042412;28;20057;-62
2022/06/11 09:50:49;;;;;;;10.77;1.98;;;;;;;;;;5047118;28;20049;-64
2022/06/11 09:53:35;;;;;;;11.70;1.95;;;;;;;;;;5041961;28;20049;-63
2022/06/11 09:56:06;;;;;;;14.00;1.95;;;;;;;;;;5047860;28;20056;-63
2022/06/11 09:58:40;;;;;;;17.80;2.20;;;;;;;;;;5041467;28;20059;-63
2022/06/11 10:01:11;;;;;;;9.88;1.92;;;;;;;;;;5046645;28;20164;-63
2022/06/11 10:03:41;;;;;;;14.40;2.60;;;;;;;;;;5051211;28;20081;-62
2022/06/11 10:06:11;;;;;;;17.50;2.60;;;;;;;;;;5079715;28;20052;-63
2022/06/11 10:08:40;;;;;;;11.18;1.92;;;;;;;;;;5041278;28;20048;-63
2022/06/11 10:11:11;;;;;;;16.13;3.03;;;;;;;;;;5041360;28;20041;-62
2022/06/11 10:13:42;;;;;;;15.20;2.47;;;;;;;;;;5040397;28;20126;-62
2022/06/11 10:16:13;;;;;;;12.40;1.83;;;;;;;;;;5033940;28;20060;-63
2022/06/11 10:18:41;;;;;;;12.88;1.88;;;;;;;;;;5064521;28;20063;-63
2022/06/11 10:21:12;;;;;;;13.73;2.58;;;;;;;;;;5062460;28;20063;-62
2022/06/11 10:23:41;;;;;;;10.73;2.58;;;;;;;;;;5042333;28;20049;-62
2022/06/11 10:26:12;;;;;;;15.40;2.67;;;;;;;;;;5026837;28;20103;-63
2022/06/11 10:28:40;;;;;;;19.55;2.40;;;;;;;;;;5047836;28;20057;-63
2022/06/11 10:31:09;;;;;;;9.80;1.98;;;;;;;;;;5048838;28;20060;-62
2022/06/11 10:33:37;;;;;;;19.30;3.85;;;;;;;;;;5063917;28;20145;-68
2022/06/11 10:36:07;;;;;;;14.48;2.80;;;;;;;;;;5041564;28;20056;-64
2022/06/11 10:38:44;;;;;;;16.25;2.17;;;;;;;;;;5046636;28;20045;-65
2022/06/11 10:41:15;;;;;;;16.58;2.40;;;;;;;;;;5052452;28;20053;-67
2022/06/11 10:43:45;;;;;;;14.88;2.45;;;;;;;;;;5045868;28;20049;-66
2022/06/11 10:46:12;;;;;;;12.20;2.10;;;;;;;;;;5046443;28;20056;-67
2022/06/11 10:48:40;;;;;;;12.55;2.17;;;;;;;;;;5044375;28;20053;-67
2022/06/11 10:51:11;;;;;;;12.80;2.10;;;;;;;;;;5046971;28;20150;-65
2022/06/11 10:53:39;;;;;;;9.95;2.25;;;;;;;;;;5041649;28;20053;-66
2022/06/11 10:56:06;;;;;;;;;;;;;;;;;;5046834;28;20056;-67
2022/06/11 10:58:36;;;;;;;15.93;2.13;;;;;;;;;;5044287;28;19936;-66
2022/06/11 11:01:06;;;;;;;11.80;2.33;;;;;;;;;;5040678;28;20048;-64
2022/06/11 11:03:38;;;;;;;16.73;1.95;;;;;;;;;;5043065;28;20045;-67
2022/06/11 11:06:06;;;;;;;17.33;2.47;;;;;;;;;;5062397;28;20059;-65
2022/06/11 11:08:34;;;;;;;12.45;2.03;;;;;;;;;;5045905;28;20044;-67
2022/06/11 11:11:01;;;;;;;12.05;2.13;;;;;;;;;;5042861;28;20091;-66
2022/06/11 11:13:33;;;;;;;15.40;2.92;;;;;;;;;;5046870;28;20053;-64
2022/06/11 11:16:10;;;;;;;25.60;3.00;;;;;;;;;;5049370;28;20049;-69
2022/06/11 11:18:41;;;;;;;17.52;2.67;;;;;;;;;;5066363;28;20048;-65
2022/06/11 11:21:15;;;;;;;25.30;7.75;;;;;;;;;;5055886;28;20053;-70
2022/06/11 11:23:42;;;;;;;21.85;4.88;;;;;;;;;;5056017;28;20144;-63
2022/06/11 11:26:12;;;;;;;14.98;3.85;;;;;;;;;;5062557;28;20048;-70
2022/06/11 11:28:44;;;;;;;14.63;3.72;;;;;;;;;;5062428;28;20052;-67
2022/06/11 11:31:19;;;;;;;18.92;4.35;;;;;;;;;;5066380;28;20053;-65
2022/06/11 11:33:57;;;;;;;17.67;3.42;;;;;;;;;;5043833;28;20064;-66
2022/06/11 11:36:25;;;;;;;15.63;3.15;;;;;;;;;;5046210;28;20136;-67
2022/06/11 11:38:51;;;;;;;;;;;;;;;;;;5070594;28;20071;-70
2022/06/11 11:41:23;;;;;;;8.23;1.85;;;;;;;;;;5069344;28;19925;-70
2022/06/11 11:43:51;;;;;;;13.88;2.10;;;;;;;;;;5059027;28;20070;-69
2022/06/11 11:46:22;;;;;;;13.33;2.10;;;;;;;;;;5070530;28;20053;-69
2022/06/11 11:48:52;;;;;;;9.80;1.73;;;;;;;;;;5065114;28;20152;-68
2022/06/11 11:51:21;;;;;;;11.35;1.83;;;;;;;;;;5070052;28;20086;-68
2022/06/11 11:53:48;;;;;;;15.27;1.92;;;;;;;;;;5070276;28;20055;-70
2022/06/11 11:56:24;;;;;;;12.97;2.17;;;;;;;;;;5048849;28;20056;-70
2022/06/11 11:58:52;;;;;;;10.48;2.20;;;;;;;;;;5050684;28;20053;-70
2022/06/11 12:01:23;;;;;;;14.32;2.42;;;;;;;;;;5041370;28;20041;-69
2022/06/11 12:03:52;;;;;;;13.20;2.05;;;;;;;;;;5059256;28;20049;-64
2022/06/11 12:06:27;;;;;;;12.05;1.60;;;;;;;;;;5066845;28;20048;-67
2022/06/11 12:08:55;;;;;;;14.18;2.92;;;;;;;;;;5069343;28;20060;-72
2022/06/11 12:11:32;;;;;;;16.63;6.45;;;;;;;;;;5054028;28;20056;-70
2022/06/11 12:14:00;;;;;;;12.93;4.70;;;;;;;;;;5069830;28;20064;-72
2022/06/11 12:16:26;;;;;;;;;;;;;;;;;;5067993;28;20099;-76
2022/06/11 12:18:59;;;;;;;11.63;2.05;;;;;;;;;;5062664;28;19926;-76
2022/06/11 12:21:28;;;;;;;12.38;2.67;;;;;;;;;;5069720;28;20094;-77
2022/06/11 12:23:57;;;;;;;14.30;2.22;;;;;;;;;;5048696;28;20365;-75
2022/06/11 12:26:27;;;;;;;14.60;2.45;;;;;;;;;;5041403;28;20069;-76
2022/06/11 12:28:54;;;;;;;;;;;;;;;;;;5046003;28;20041;-71
2022/06/11 12:31:21;;;;;;;13.55;2.20;;;;;;;;;;5048876;28;19931;-72
2022/06/11 12:33:48;;;;;;;12.15;2.70;;;;;;;;;;5046211;28;20113;-73
2022/06/11 12:36:23;;;;;;;13.15;3.15;;;;;;;;;;5063264;28;20137;-72
2022/06/11 12:38:54;;;;;;;8.38;1.88;;;;;;;;;;5049917;28;20057;-75
2022/06/11 12:41:24;;;;;;;17.98;2.60;;;;;;;;;;5047203;28;20048;-78
2022/06/11 12:43:54;;;;;;;11.68;2.38;;;;;;;;;;5049539;28;20071;-76
2022/06/11 12:46:24;;;;;;;17.92;2.38;;;;;;;;;;5055919;28;20059;-77
2022/06/11 12:49:04;;;;;;;13.27;2.35;;;;;;;;;;5068834;28;20053;-75
2022/06/11 12:51:37;;;;;;;11.63;2.00;;;;;;;;;;5052780;28;20055;-72
2022/06/11 12:54:13;;;;;;;9.52;2.50;;;;;;;;;;5048239;28;20060;-75
2022/06/11 12:56:51;;;;;;;18.52;3.10;;;;;;;;;;5045528;28;20053;-73
2022/06/11 12:59:25;;;;;;;13.23;2.15;;;;;;;;;;5046420;28;20045;-75
2022/06/11 13:01:59;;;;;;;9.75;1.80;;;;;;;;;;5035023;28;20044;-75
2022/06/11 13:04:37;;;;;;;10.45;1.80;;;;;;;;;;5047701;28;20060;-76
2022/06/11 13:07:10;;;;;;;7.28;1.75;;;;;;;;;;5039680;28;20080;-75
2022/06/11 13:09:55;;;;;;;9.10;2.03;;;;;;;;;;5047332;28;20144;-82
2022/06/11 13:12:25;;;;;;;10.13;2.13;;;;;;;;;;5011651;28;20093;-77
2022/06/11 13:14:59;;;;;;;9.63;1.73;;;;;;;;;;5057969;28;20033;-76
2022/06/11 13:17:32;;;;;;;13.20;1.92;;;;;;;;;;5054123;28;20052;-75
2022/06/11 13:20:05;;;;;;;13.07;2.00;;;;;;;;;;5023751;28;20118;-73
2022/06/11 13:22:41;;;;;;;15.57;2.22;;;;;;;;;;5051444;28;20059;-75
2022/06/11 13:25:15;;;;;;;10.25;2.30;;;;;;;;;;5035124;28;20057;-74
2022/06/11 13:27:46;;;;;;;8.68;1.90;;;;;;;;;;5028210;28;20081;-74
2022/06/11 13:30:19;;;;;;;12.93;2.03;;;;;;;;;;5019605;28;20140;-76
2022/06/11 13:32:52;;;;;;;8.85;1.60;;;;;;;;;;5027278;28;20065;-73
2022/06/11 13:35:26;;;;;;;12.95;2.30;;;;;;;;;;5035325;28;20072;-71
2022/06/11 13:38:00;;;;;;;17.48;2.28;;;;;;;;;;5027323;28;20080;-75
2022/06/11 13:40:44;;;;;;;13.52;1.95;;;;;;;;;;5039591;28;20053;-71
2022/06/11 13:43:36;;;;;;;10.73;1.77;;;;;;;;;;5042413;28;20170;-75
2022/06/11 13:46:05;;;;;;;12.82;1.85;;;;;;;;;;5023064;28;20068;-72
2022/06/11 13:48:38;;;;;;;11.95;2.60;;;;;;;;;;5023335;28;20053;-73
2022/06/11 13:51:10;;;;;;;8.05;1.88;;;;;;;;;;5025655;28;20053;-74
2022/06/11 13:56:31;;;;;;;13.75;2.17;;;;;;;;;;5043614;28;20120;-74
2022/06/11 13:59:15;;;;;;;12.23;2.13;;;;;;;;;;5017295;28;20063;-74
2022/06/11 14:01:50;;;;;;;8.88;1.63;;;;;;;;;;5018024;28;20060;-71
2022/06/11 14:04:28;;;;;;;9.63;1.88;;;;;;;;;;5012069;28;20046;-71
2022/06/11 14:06:56;;;;;;;15.30;2.72;;;;;;;;;;5026078;28;20059;-72
2022/06/11 14:12:26;;;;;;;7.35;1.83;;;;;;;;;;5026178;28;20064;-73
2022/06/11 14:15:12;;;;;;;9.13;2.33;;;;;;;;;;5023278;28;20056;-72
2022/06/11 14:17:39;;;;;;;11.05;2.40;;;;;;;;;;5042432;28;20050;-74
2022/06/11 14:20:17;;;;;;;13.93;1.77;;;;;;;;;;5038687;28;20194;-73
2022/06/11 14:22:48;;;;;;;7.22;1.55;;;;;;;;;;5042256;28;20061;-73
2022/06/11 14:25:34;;;;;;;10.10;1.70;;;;;;;;;;5026598;28;20057;-73
2022/06/11 14:28:16;;;;;;;8.18;1.80;;;;;;;;;;5034504;28;20064;-74
2022/06/11 14:31:04;;;;;;;18.15;2.13;;;;;;;;;;5017570;28;20083;-72
2022/06/11 14:33:33;;;;;;;12.18;2.10;;;;;;;;;;5026531;28;20062;-74
2022/06/11 14:36:02;;;;;;;13.77;2.20;;;;;;;;;;5037643;28;20571;-72
2022/06/11 14:38:38;;;;;;;12.40;1.88;;;;;;;;;;5052738;28;20082;-72
2022/06/11 14:41:38;;;;;;;9.43;1.60;;;;;;;;;;5036649;28;20132;-73
2022/06/11 14:44:25;;;;;;;8.43;1.88;;;;;;;;;;4972646;28;20102;-70
2022/06/11 14:47:01;;;;;;;10.88;2.45;;;;;;;;;;4989260;28;20061;-71
2022/06/11 14:49:46;;;;;;;14.20;2.38;;;;;;;;;;5015605;28;20053;-71
2022/06/11 14:52:33;;;;;;;8.65;1.63;;;;;;;;;;5062734;28;20064;-71
2022/06/11 14:55:02;;;;;;;13.32;1.63;;;;;;;;;;5048443;28;20143;-70
2022/06/11 14:57:34;;;;;;;12.68;1.95;;;;;;;;;;5049987;28;20144;-70
2022/06/11 15:00:14;;;;;;;9.95;1.48;;;;;;;;;;5033826;28;20076;-72
2022/06/11 15:03:02;;;;;;;9.07;1.50;;;;;;;;;;5028682;28;20115;-70
2022/06/11 15:05:35;;;;;;;8.85;1.67;;;;;;;;;;5022758;28;20049;-72